Flight Track Log - Related Links

Times and Time Zones

All times are in EDT time to prevent confusion due to time zone crossing. See the UAL33 flight status page for this flight to view local times or setup timezone preferences in your user account.

Time Position Orientation Groundspeed Altitude Reporting Facility
EDT Latitude Longitude Course Direction KTS MPH feet Rate Location/Type
Tue 09:53:34 PM 41.9667 -87.9333 203° Southwest 174 200 2,300  Level Chicago TRACON
Tue 09:54:28 PM 41.9167 -87.9833 217° Southwest 225 259 4,300 2,066 Climbing Chicago TRACON
Tue 09:56:00 PM 41.5391 -88.1077 197° South  Level FlightAware Approximate
Tue 09:56:05 PM 41.8214 -87.9989 187° South 265 305 7,500  Level Chicago Center
Tue 09:57:00 PM 41.4273 -88.1520 194° South  Level FlightAware Approximate
Tue 09:57:07 PM 41.7406 -88.0306 196° South 261 300 12,100  Level Chicago Center
Tue 09:58:00 PM 41.3178 -88.2041 203° Southwest  Level FlightAware Approximate
Tue 09:58:09 PM 41.6817 -88.0886 216° Southwest 264 304 14,900  Level Chicago Center
Tue 09:59:10 PM 41.6061 -88.1136 194° South 283 326 16,200 1,317 Climbing Chicago Center
Tue 10:00:12 PM 41.5236 -88.1497 198° South 324 373 17,600 2,000 Climbing Chicago Center
Tue 10:01:13 PM 41.4325 -88.1886 198° South 357 411 20,300 2,780 Climbing Chicago Center
Tue 10:02:15 PM 41.3147 -88.2411 199° South 382 440 23,300 2,758 Climbing Chicago Center
Tue 10:03:17 PM 41.2131 -88.2853 198° South 388 447 26,000 2,780 Climbing Chicago Center
Tue 10:04:18 PM 41.1117 -88.3286 198° South 388 447 29,000 2,732 Climbing Chicago Center
Tue 10:05:20 PM 41.0119 -88.3717 198° South 383 441 31,600 1,984 Climbing Chicago Center
Tue 10:06:22 PM 40.9114 -88.4142 198° South 382 440 33,100 1,610 Climbing Chicago Center
Tue 10:07:23 PM 40.7828 -88.4572 194° South 400 460 34,900 1,024 Climbing Chicago Center
Tue 10:08:25 PM 40.6708 -88.4747 187° South 408 470 35,200 683 Climbing Chicago Center
Tue 10:09:26 PM 40.5567 -88.4919 187° South 414 476 36,300 1,220 Climbing Chicago Center
Tue 10:10:28 PM 40.4306 -88.5122 187° South 429 494 37,700 1,366 Climbing Chicago Center
Tue 10:11:29 PM 40.3508 -88.6144 224° Southwest 413 475 39,100 1,122 Climbing Chicago Center
Tue 10:12:31 PM 40.2808 -88.7333 232° Southwest 410 472 40,000 439 Climbing Chicago Center
Tue 10:13:32 PM 40.2111 -88.8497 232° Southwest 406 467 40,000  Level Chicago Center
Tue 10:14:34 PM 40.1408 -88.9686 232° Southwest 410 472 40,000  Level Chicago Center
Tue 10:15:35 PM 40.0697 -89.0858 232° Southwest 411 473 40,000  Level Chicago Center
Tue 10:16:21 PM 40.0128 -89.1814 232° Southwest 411 473 40,000  Level Kansas City Center
Tue 10:17:23 PM 39.9425 -89.2969 232° Southwest 408 470 40,000  Level Kansas City Center
Tue 10:18:25 PM 39.8728 -89.4128 232° Southwest 406 467 40,000  Level Kansas City Center
Tue 10:19:26 PM 39.8031 -89.5275 232° Southwest 404 465 40,000  Level Kansas City Center
Tue 10:20:28 PM 39.7333 -89.6428 232° Southwest 405 466 40,000  Level Kansas City Center
Tue 10:21:30 PM 39.6592 -89.7639 232° Southwest 404 465 40,000  Level Kansas City Center
Tue 10:22:31 PM 39.5894 -89.8797 232° Southwest 406 467 40,000  Level Kansas City Center
Tue 10:23:33 PM 39.5186 -89.9953 232° Southwest 410 472 40,000  Level Kansas City Center
Tue 10:24:35 PM 39.4325 -90.1353 231° Southwest 415 478 40,000  Level Kansas City Center
Tue 10:25:36 PM 39.3606 -90.2536 232° Southwest 419 482 40,000  Level Kansas City Center
Tue 10:26:38 PM 39.2878 -90.3714 231° Southwest 422 486 40,000  Level Kansas City Center
Tue 10:27:39 PM 39.2147 -90.4903 232° Southwest 425 489 40,000  Level Kansas City Center
Tue 10:28:41 PM 39.1417 -90.6072 231° Southwest 423 487 40,000  Level Kansas City Center
Tue 10:29:43 PM 39.0703 -90.7200 231° Southwest 416 479 40,000  Level Kansas City Center
Tue 10:30:44 PM 38.9831 -90.8594 231° Southwest 420 483 40,000  Level Kansas City Center
Tue 10:31:46 PM 38.9097 -90.9747 231° Southwest 421 484 40,000  Level Kansas City Center
Tue 10:32:47 PM 38.8369 -91.0894 231° Southwest 419 482 40,000  Level Kansas City Center
Tue 10:33:49 PM 38.7642 -91.2050 231° Southwest 420 483 40,000  Level Kansas City Center
Tue 10:34:50 PM 38.6906 -91.3200 231° Southwest 420 483 40,000  Level Kansas City Center
Tue 10:35:52 PM 38.6092 -91.4475 231° Southwest 417 480 40,000  Level Kansas City Center
Tue 10:36:53 PM 38.5344 -91.5619 230° Southwest 418 481 40,000  Level Kansas City Center
Tue 10:37:55 PM 38.4600 -91.6786 231° Southwest 421 484 40,000  Level Kansas City Center
Tue 10:38:56 PM 38.3839 -91.7928 230° Southwest 420 483 40,000  Level Kansas City Center
Tue 10:39:58 PM 38.3108 -91.9050 230° Southwest 413 475 40,000  Level Kansas City Center
Tue 10:40:59 PM 38.2372 -92.0164 230° Southwest 411 473 40,000  Level Kansas City Center
Tue 10:42:00 PM 38.1592 -92.1353 230° Southwest 413 475 40,000  Level Kansas City Center
Tue 10:43:02 PM 38.0861 -92.2456 230° Southwest 412 474 40,000  Level Kansas City Center
Tue 10:44:03 PM 38.0106 -92.3622 231° Southwest 428 493 40,000  Level Kansas City Center
Tue 10:45:05 PM 37.9358 -92.4725 229° Southwest 423 487 40,000  Level Kansas City Center
Tue 10:46:06 PM 37.8306 -92.5847 220° Southwest 419 482 40,000  Level Kansas City Center
Tue 10:47:08 PM 37.7378 -92.6711 216° Southwest 415 478 40,000  Level Kansas City Center
Tue 10:48:09 PM 37.6383 -92.7647 217° Southwest 417 480 40,000  Level Kansas City Center
Tue 10:49:10 PM 37.5461 -92.8497 216° Southwest 413 475 40,000  Level Kansas City Center
Tue 10:50:12 PM 37.4544 -92.9361 217° Southwest 411 473 40,000  Level Kansas City Center
Tue 10:51:13 PM 37.3625 -93.0222 217° Southwest 412 474 40,000  Level Kansas City Center
Tue 10:52:14 PM 37.2717 -93.1069 217° Southwest 408 470 40,000  Level Kansas City Center
Tue 10:53:16 PM 37.1786 -93.1894 215° Southwest 409 471 40,000  Level Kansas City Center
Tue 10:54:17 PM 37.0864 -93.2733 216° Southwest 409 471 40,000  Level Kansas City Center
Tue 10:55:18 PM 36.9967 -93.3586 217° Southwest 406 467 40,000  Level Kansas City Center
Tue 10:56:20 PM 36.9053 -93.4414 216° Southwest 405 466 40,000  Level Kansas City Center
Tue 10:57:21 PM 36.8000 -93.5392 217° Southwest 408 470 40,000  Level Kansas City Center
Tue 10:58:22 PM 36.7119 -93.6203 216° Southwest 401 461 40,000  Level Kansas City Center
Tue 10:59:24 PM 36.6222 -93.7019 216° Southwest 400 460 40,000  Level Kansas City Center
Tue 11:00:25 PM 36.5417 -93.7736 216° Southwest 393 452 40,000  Level Kansas City Center
Tue 11:01:26 PM 36.4361 -93.8708 217° Southwest 392 451 40,000  Level Kansas City Center
Tue 11:02:28 PM 36.3486 -93.9503 216° Southwest 390 449 40,000  Level Kansas City Center
Tue 11:02:44 PM 36.3317 -93.9636 212° Southwest 400 460 40,000  Level Memphis Center
Tue 11:03:44 PM 36.2375 -94.0494 216° Southwest 400 460 40,000  Level Memphis Center
Tue 11:04:44 PM 36.1497 -94.1253 215° Southwest 395 455 40,000  Level Memphis Center
Tue 11:05:44 PM 36.0597 -94.2083 217° Southwest 400 460 40,000  Level Memphis Center
Tue 11:06:44 PM 35.9717 -94.2836 215° Southwest 400 460 40,000  Level Memphis Center
Tue 11:07:44 PM 35.8881 -94.3592 216° Southwest 394 453 40,000  Level Memphis Center
Tue 11:08:44 PM 35.8022 -94.4369 216° Southwest 394 453 40,000  Level Memphis Center
Tue 11:09:44 PM 35.7183 -94.5144 217° Southwest 394 453 40,000  Level Memphis Center
Tue 11:10:44 PM 35.6300 -94.5919 216° Southwest 389 448 40,000  Level Memphis Center
Tue 11:12:44 PM 35.4592 -94.7428 216° Southwest 380 437 40,000  Level Fort Worth Center
Tue 11:13:44 PM 35.3711 -94.8194 215° Southwest 380 437 40,000  Level Fort Worth Center
Tue 11:14:44 PM 35.2850 -94.8958 216° Southwest 380 437 40,000  Level Fort Worth Center
Tue 11:15:44 PM 35.2011 -94.9694 216° Southwest 380 437 40,000  Level Fort Worth Center
Tue 11:16:44 PM 35.1128 -95.0456 215° Southwest 380 437 40,000  Level Fort Worth Center
Tue 11:17:45 PM 35.0267 -95.1217 216° Southwest 380 437 40,000  Level Fort Worth Center
Tue 11:18:45 PM 34.9403 -95.1947 215° Southwest 380 437 40,000  Level Fort Worth Center
Tue 11:19:45 PM 34.8539 -95.2703 216° Southwest 380 437 40,000  Level Fort Worth Center
Tue 11:20:44 PM 34.7675 -95.3433 215° Southwest 380 437 40,000  Level Fort Worth Center
Tue 11:21:44 PM 34.6894 -95.4083 214° Southwest 380 437 40,000  Level Fort Worth Center
Tue 11:22:44 PM 34.5947 -95.4914 216° Southwest 385 443 40,000  Level Fort Worth Center
Tue 11:23:45 PM 34.5083 -95.5639 215° Southwest 385 443 40,000  Level Fort Worth Center
Tue 11:24:45 PM 34.4194 -95.6336 213° Southwest 400 460 40,000  Level Fort Worth Center
Tue 11:25:45 PM 34.3328 -95.7083 215° Southwest 394 453 40,000  Level Fort Worth Center
Tue 11:26:45 PM 34.2442 -95.7806 214° Southwest 394 453 40,000  Level Fort Worth Center
Tue 11:27:44 PM 34.1553 -95.8550 215° Southwest 394 453 40,000  Level Fort Worth Center
Tue 11:28:44 PM 34.0728 -95.9292 217° Southwest 394 453 40,000  Level Fort Worth Center
Tue 11:34:13 PM 33.5617 -96.3540 217° Southwest 399 459 40,000  Level FlightAware ADS-B
Tue 11:35:27 PM 33.4480 -96.4480 215° Southwest 400 460 40,000  Level FlightAware ADS-B
Tue 11:35:58 PM 33.4006 -96.4869 214° Southwest 404 465 40,000  Level FlightAware ADS-B
Tue 11:36:24 PM 33.3605 -96.5201 215° Southwest 406 467 40,000  Level FlightAware ADS-B
Tue 11:36:59 PM 33.3044 -96.5616 212° Southwest 407 468 40,000  Level FlightAware ADS-B
Tue 11:37:16 PM 33.2763 -96.5778 206° Southwest 406 467 40,000  Level FlightAware ADS-B
Tue 11:37:46 PM 33.2243 -96.6059 204° Southwest 406 467 40,000  Level FlightAware ADS-B
Tue 11:38:16 PM 33.1730 -96.6337 204° Southwest 406 467 40,000  Level FlightAware ADS-B
Tue 11:38:47 PM 33.1201 -96.6622 204° Southwest 407 468 40,000  Level FlightAware ADS-B
Tue 11:39:37 PM 33.0351 -96.7080 204° Southwest 408 470 40,000  Level FlightAware ADS-B
Tue 11:40:23 PM 32.9552 -96.7508 204° Southwest 408 470 40,000  Level FlightAware ADS-B
Tue 11:40:53 PM 32.9036 -96.7787 204° Southwest 410 472 40,000  Level FlightAware ADS-B
Tue 11:41:25 PM 32.8474 -96.8087 204° Southwest 412 474 40,000 -276 Level FlightAware ADS-B
Tue 11:42:20 PM 32.7517 -96.8599 204° Southwest 416 479 39,600 -698 Descending FlightAware ADS-B
Tue 11:42:51 PM 32.6974 -96.8890 204° Southwest 414 476 39,000 -1,103 Descending FlightAware ADS-B
Tue 11:43:47 PM 32.5928 -96.9182 193° South 425 489 38,000 -698 Descending FlightAware ADS-B
Tue 11:44:17 PM 32.5333 -96.9253 186° South 427 491 38,000  Level FlightAware ADS-B
Tue 11:44:49 PM 32.4709 -96.9328 186° South 425 489 38,000  Level FlightAware ADS-B
Tue 11:45:33 PM 32.3855 -96.9427 186° South 422 486 38,000  Level FlightAware ADS-B
Tue 11:46:05 PM 32.3231 -96.9499 186° South 423 487 38,000  Level FlightAware ADS-B
Tue 11:47:16 PM 32.1833 -96.9660 185° South 424 488 38,000  Level FlightAware ADS-B
Tue 11:47:46 PM 32.1242 -96.9728 186° South 425 489 38,000  Level FlightAware ADS-B
Tue 11:49:52 PM 31.8790 -97.0010 186° South 424 488 38,000  Level FlightAware ADS-B
Tue 11:52:23 PM 31.5829 -97.0348 186° South 422 486 38,000  Level FlightAware ADS-B
Tue 11:52:53 PM 31.5240 -97.0415 186° South 423 487 38,000  Level FlightAware ADS-B
Tue 11:53:24 PM 31.4647 -97.0483 186° South 423 487 38,000  Level FlightAware ADS-B
Tue 11:54:24 PM 31.3461 -97.0617 186° South 423 487 38,000  Level FlightAware ADS-B
Tue 11:55:25 PM 31.2279 -97.0751 185° South 421 484 38,000  Level FlightAware ADS-B
Tue 11:56:57 PM 31.0504 -97.0952 186° South 421 484 38,000  Level FlightAware ADS-B
Tue 11:57:58 PM 30.9326 -97.1084 186° South 420 483 38,000  Level FlightAware ADS-B
Tue 11:58:58 PM 30.8145 -97.1217 186° South 423 487 38,000 -694 Level FlightAware ADS-B
Tue 11:59:59 PM 30.6953 -97.1350 185° South 443 510 36,600 -845 Descending FlightAware ADS-B
Wed 12:02:31 AM 30.3789 -97.1702 185° South 453 521 35,000 -420 Descending FlightAware ADS-B
Wed 12:04:02 AM 30.1872 -97.1915 186° South 457 526 34,900 -474 Descending FlightAware ADS-B
Wed 12:05:03 AM 30.0587 -97.2057 185° South 451 519 33,800 -1,375 Descending FlightAware ADS-B
Wed 12:05:38 AM 29.9865 -97.2135 185° South 446 513 32,700 -1,938 Descending FlightAware ADS-B
Wed 12:06:08 AM 29.9244 -97.2205 186° South 441 507 31,700 -2,066 Descending FlightAware ADS-B
Wed 12:06:39 AM 29.8633 -97.2273 186° South 438 504 30,600 -2,400 Descending FlightAware ADS-B
Wed 12:06:58 AM 29.8237 -97.2318 186° South 442 509 29,700 -2,889 Descending FlightAware ADS-B
Wed 12:07:06 AM 29.8067 -97.2327 183° South 447 514 29,300 -3,000 Descending FlightAware ADS-B
Wed 12:07:18 AM 29.7824 -97.2310 177° South 455 524 28,700 -2,870 Descending FlightAware ADS-B
Wed 12:07:29 AM 29.7606 -97.2257 168° South 461 531 28,200 -3,000 Descending FlightAware ADS-B
Wed 12:07:38 AM 29.7407 -97.2195 165° South 468 539 27,700 -3,300 Descending FlightAware ADS-B
Wed 12:07:49 AM 29.7181 -97.2087 157° South 475 547 27,100 -3,231 Descending FlightAware ADS-B
Wed 12:07:51 AM 29.7150 -97.2068 152° Southeast 475 547 27,000 -3,429 Descending FlightAware ADS-B
Wed 12:07:56 AM 29.7044 -97.2005 153° Southeast 478 550 26,700 -3,600 Descending FlightAware ADS-B
Wed 12:08:01 AM 29.6961 -97.1945 148° Southeast 480 552 26,400 -3,500 Descending FlightAware ADS-B
Wed 12:08:08 AM 29.6829 -97.1839 145° Southeast 482 555 26,000 -3,000 Descending FlightAware ADS-B
Wed 12:08:09 AM 29.6807 -97.1822 146° Southeast 482 555 26,000 -3,000 Level FlightAware ADS-B
Wed 12:08:14 AM 29.6720 -97.1742 141° Southeast 484 557 25,700 -2,727 Descending FlightAware ADS-B
Wed 12:08:20 AM 29.6616 -97.1630 137° Southeast 484 557 25,500 -2,308 Descending FlightAware ADS-B
Wed 12:08:27 AM 29.6517 -97.1501 131° Southeast 483 556 25,200 -2,308 Descending FlightAware ADS-B
Wed 12:08:33 AM 29.6436 -97.1370 125° Southeast 483 556 25,000 -2,000 Descending FlightAware ADS-B
Wed 12:08:39 AM 29.6371 -97.1244 121° Southeast 481 554 24,800 -1,800 Descending FlightAware ADS-B
Wed 12:08:43 AM 29.6327 -97.1144 117° Southeast 480 552 24,700 -2,182 Descending FlightAware ADS-B
Wed 12:08:50 AM 29.6273 -97.0983 111° Southeast 479 551 24,400 -2,308 Descending FlightAware ADS-B
Wed 12:08:56 AM 29.6239 -97.0841 105° East 478 550 24,200 -1,846 Descending FlightAware ADS-B
Wed 12:09:03 AM 29.6214 -97.0672 100° East 477 549 24,000 -2,000 Descending FlightAware ADS-B
Wed 12:09:14 AM 29.6190 -97.0384 95° East 472 543 23,600 -1,935 Descending FlightAware ADS-B
Wed 12:09:34 AM 29.6148 -96.9907 96° East 465 535 23,000 -1,909 Descending FlightAware ADS-B
Wed 12:09:58 AM 29.6097 -96.9314 96° East 472 543 22,200 -2,000 Descending FlightAware ADS-B
Wed 12:10:04 AM 29.6086 -96.9174 95° East 455 524 22,000 -1,833 Descending FlightAware ADS-B
Wed 12:10:34 AM 29.6028 -96.8458 95° East 444 511 21,100 -1,800 Descending FlightAware ADS-B
Wed 12:11:04 AM 29.5971 -96.7753 95° East 436 502 20,200 -1,770 Descending FlightAware ADS-B
Wed 12:11:35 AM 29.5914 -96.7061 95° East 427 491 19,300 -1,770 Descending FlightAware ADS-B
Wed 12:12:05 AM 29.5858 -96.6386 95° East 420 483 18,400 -1,700 Descending FlightAware ADS-B
Wed 12:12:35 AM 29.5804 -96.5733 95° East 410 472 17,600 -1,600 Descending FlightAware ADS-B
Wed 12:13:05 AM 29.5747 -96.5077 96° East 404 465 16,800 -1,700 Descending FlightAware ADS-B
Wed 12:13:35 AM 29.5692 -96.4444 96° East 396 456 15,900 -1,700 Descending FlightAware ADS-B
Wed 12:14:05 AM 29.5639 -96.3822 96° East 391 450 15,100 -1,600 Descending FlightAware ADS-B
Wed 12:14:35 AM 29.5585 -96.3208 96° East 385 443 14,300 -1,672 Descending FlightAware ADS-B
Wed 12:15:06 AM 29.5531 -96.2594 96° East 381 438 13,400 -1,745 Descending FlightAware ADS-B
Wed 12:15:30 AM 29.5491 -96.2107 95° East 376 433 12,700 -1,448 Descending FlightAware ADS-B
Wed 12:15:35 AM 29.5488 -96.2015 92° East 374 430 12,700 -923 Level FlightAware ADS-B
Wed 12:15:43 AM 29.5494 -96.1861 87° East 373 429 12,500 -1,412 Descending FlightAware ADS-B
Wed 12:15:52 AM 29.5520 -96.1677 81° East 372 428 12,300 -1,125 Descending FlightAware ADS-B
Wed 12:15:59 AM 29.5552 -96.1545 74° East 370 426 12,200 -750 Descending FlightAware ADS-B
Wed 12:16:08 AM 29.5609 -96.1385 68° East 371 427 12,100 -375 Descending FlightAware ADS-B
Wed 12:16:15 AM 29.5668 -96.1256 62° Northeast 371 427 12,100 -162 Level FlightAware ADS-B
Wed 12:16:45 AM 29.5928 -96.0743 60° Northeast 367 422 12,000 -885 Descending FlightAware ADS-B
Wed 12:17:16 AM 29.6185 -96.0230 60° Northeast 364 419 11,200 -1,180 Descending FlightAware ADS-B
Wed 12:17:46 AM 29.6431 -95.9741 60° Northeast 346 398 10,800 -700 Descending FlightAware ADS-B
Wed 12:18:16 AM 29.6667 -95.9269 60° Northeast 331 381 10,500 -600 Descending FlightAware ADS-B
Wed 12:18:46 AM 29.6893 -95.8819 60° Northeast 318 366 10,200 -414 Descending FlightAware ADS-B
Wed 12:19:14 AM 29.7096 -95.8417 60° Northeast 314 361 10,100 -255 Descending FlightAware ADS-B
Wed 12:19:33 AM 29.7235 -95.8139 60° Northeast 314 361 10,000 -353 Descending FlightAware ADS-B
Wed 12:19:48 AM 29.7343 -95.7922 60° Northeast 314 361 9,900 -387 Descending FlightAware ADS-B
Wed 12:20:04 AM 29.7459 -95.7691 60° Northeast 313 360 9,800 -476 Descending FlightAware ADS-B
Wed 12:20:51 AM 29.7797 -95.7017 60° Northeast 310 357 9,400 -519 Descending FlightAware ADS-B
Wed 12:21:25 AM 29.8033 -95.6544 60° Northeast 308 354 9,100 -471 Descending FlightAware ADS-B
Wed 12:21:42 AM 29.8159 -95.6291 60° Northeast 308 354 9,000 -462 Descending FlightAware ADS-B
Wed 12:22:17 AM 29.8404 -95.5801 60° Northeast 306 352 8,700 -462 Descending FlightAware ADS-B
Wed 12:22:34 AM 29.8521 -95.5566 60° Northeast 305 351 8,600 -423 Descending FlightAware ADS-B
Wed 12:23:28 AM 29.8897 -95.4787 67° East 303 349 8,200 -500 Descending FlightAware ADS-B
Wed 12:23:46 AM 29.8953 -95.4516 80° East 300 345 8,000 -545 Descending FlightAware ADS-B
Wed 12:23:50 AM 29.8959 -95.4443 85° East 299 344 8,000 -293 Level FlightAware ADS-B
Wed 12:24:27 AM 29.8961 -95.3858 89° East 295 339 7,800 -275 Descending FlightAware ADS-B
Wed 12:25:39 AM 29.8966 -95.2753 90° East 279 321 7,500 -170 Descending FlightAware ADS-B
Wed 12:26:13 AM 29.8967 -95.2276 90° East 258 297 7,500 -1,290 Level FlightAware ADS-B
Wed 12:27:26 AM 29.8969 -95.1298 90° East 245 282 5,200 -1,950 Descending FlightAware ADS-B
Wed 12:27:33 AM 29.8976 -95.1196 83° East 245 282 4,900 -2,182 Descending FlightAware ADS-B
Wed 12:27:37 AM 29.8987 -95.1146 76° East 244 281 4,800 -2,000 Descending FlightAware ADS-B
Wed 12:27:42 AM 29.9005 -95.1096 67° East 244 281 4,600 -2,182 Descending FlightAware ADS-B
Wed 12:27:48 AM 29.9043 -95.1028 55° Northeast 241 277 4,400 -2,118 Descending FlightAware ADS-B
Wed 12:27:59 AM 29.9131 -95.0929 39° Northeast 237 273 4,000 -2,182 Descending FlightAware ADS-B
Wed 12:28:10 AM 29.9241 -95.0870 18° North 234 269 3,600 -2,333 Descending FlightAware ADS-B
Wed 12:28:17 AM 29.9316 -95.0854 North 232 267 3,300 -2,182 Descending FlightAware ADS-B
Wed 12:28:21 AM 29.9356 -95.0850 North 231 266 3,200 -2,250 Descending FlightAware ADS-B
Wed 12:28:25 AM 29.9403 -95.0851 359° North 229 264 3,000 -2,571 Descending FlightAware ADS-B
Wed 12:28:28 AM 29.9434 -95.0856 352° North 226 260 2,900 -1,714 Descending FlightAware ADS-B
Wed 12:28:32 AM 29.9471 -95.0867 346° North 223 257 2,800 -1,714 Descending FlightAware ADS-B
Wed 12:28:35 AM 29.9503 -95.0882 338° Northwest 221 254 2,700 -2,182 Descending FlightAware ADS-B
Wed 12:28:43 AM 29.9568 -95.0932 322° Northwest 216 249 2,400 -2,000 Descending FlightAware ADS-B
Wed 12:28:47 AM 29.9598 -95.0963 318° Northwest 214 246 2,300 -750 Descending FlightAware ADS-B
Wed 12:28:51 AM 29.9624 -95.0994 314° West 211 243 2,300 -462 Level FlightAware ADS-B
Wed 12:29:00 AM 29.9677 -95.1073 305° West 209 241 2,200 -1,000 Descending FlightAware ADS-B
Wed 12:29:03 AM 29.9693 -95.1104 301° West 208 239 2,100 -545 Descending FlightAware ADS-B
Wed 12:29:11 AM 29.9721 -95.1176 294° West 205 236 2,100  Level FlightAware ADS-B
Wed 12:29:19 AM 29.9742 -95.1262 283° West 193 222 2,100  Level FlightAware ADS-B
Wed 12:29:22 AM 29.9749 -95.1295 284° West 189 217 2,100  Level FlightAware ADS-B
Wed 12:29:39 AM 29.9771 -95.1460 278° West 180 207 2,100  Level FlightAware ADS-B
Wed 12:29:46 AM 29.9774 -95.1520 273° West 178 205 2,100  Level FlightAware ADS-B
Wed 12:29:54 AM 29.9775 -95.1598 271° West 177 204 2,100  Level FlightAware ADS-B
Wed 12:30:24 AM 29.9775 -95.1884 270° West 176 203 2,100 -383 Level FlightAware ADS-B
Wed 12:30:41 AM 29.9776 -95.2039 270° West 174 200 1,800 -1,034 Descending FlightAware ADS-B
Wed 12:30:53 AM 29.9776 -95.2150 270° West 173 199 1,600 -889 Descending FlightAware ADS-B
Wed 12:31:08 AM 29.9776 -95.2285 270° West 162 186 1,400 -800 Descending FlightAware ADS-B
Wed 12:31:23 AM 29.9776 -95.2407 270° West 146 168 1,200 -800 Descending FlightAware ADS-B
Wed 12:31:38 AM 29.9776 -95.2522 270° West 143 165 1,000 -818 Descending FlightAware ADS-B
Wed 12:31:45 AM 29.9776 -95.2573 270° West 143 165 900 -818 Descending FlightAware ADS-B
Wed 12:32:00 AM 29.9777 -95.2690 271° West 145 167 700 -750 Descending FlightAware ADS-B
Wed 12:32:09 AM 29.9777 -95.2759 270° West 146 168 600 -706 Descending FlightAware ADS-B
Wed 12:32:17 AM 29.9777 -95.2823 270° West 147 169 500 -500 Descending FlightAware ADS-B
Wed 12:32:33 AM 29.9776 -95.2940 269° West 145 167 400 -720 Descending FlightAware ADS-B
Wed 12:32:42 AM 29.9776 -95.3012 270° West 144 166 200 -146 Descending FlightAware ADS-B
Wed 12:33:14 AM 29.9792 -95.3206 270° West 163 188 300 188 Climbing Houston Center

Login

Don't have an account? Register now (free) for customized features, flight alerts, and more!